createdAt,value
2024-01-09T00:01:30.316Z,50.30
2024-01-09T00:03:58.206Z,49.60
2024-01-09T00:06:26.081Z,48.20
2024-01-09T00:08:54.139Z,51.80
2024-01-09T00:11:21.995Z,57.40
2024-01-09T00:13:49.797Z,53.80
2024-01-09T00:16:17.554Z,50.00
2024-01-09T00:18:45.467Z,58.10
2024-01-09T00:21:13.326Z,52.10
2024-01-09T00:23:41.171Z,51.00
2024-01-09T00:26:09.168Z,51.00
2024-01-09T00:28:38.508Z,57.10
2024-01-09T00:31:06.694Z,49.90
2024-01-09T00:33:34.802Z,51.50
2024-01-09T00:36:06.548Z,49.50
2024-01-09T00:38:38.518Z,57.30
2024-01-09T00:41:06.376Z,44.90
2024-01-09T00:43:34.159Z,40.60
2024-01-09T00:46:01.991Z,49.90
2024-01-09T00:48:30.119Z,50.20
2024-01-09T00:50:58.108Z,50.20
2024-01-09T00:53:26.058Z,47.00
2024-01-09T00:55:53.968Z,51.00
2024-01-09T00:58:21.795Z,52.90
2024-01-09T01:00:49.907Z,55.30
2024-01-09T01:03:17.692Z,55.00
2024-01-09T01:05:47.310Z,48.90
2024-01-09T01:08:15.122Z,58.70
2024-01-09T01:10:43.119Z,48.70
2024-01-09T01:13:11.188Z,53.90
2024-01-09T01:15:39.090Z,46.70
2024-01-09T01:18:07.231Z,47.00
2024-01-09T01:20:35.189Z,46.60
2024-01-09T01:23:03.063Z,52.40
2024-01-09T01:25:30.917Z,41.50
2024-01-09T01:27:58.730Z,49.60
2024-01-09T01:30:26.657Z,56.30
2024-01-09T01:32:54.792Z,48.40
2024-01-09T01:35:22.662Z,51.60
2024-01-09T01:37:50.395Z,46.00
2024-01-09T01:40:18.507Z,44.30
2024-01-09T01:42:46.265Z,55.40
2024-01-09T01:45:17.911Z,53.20
2024-01-09T01:47:47.350Z,44.90
2024-01-09T01:50:16.583Z,44.90
2024-01-09T01:52:47.285Z,55.30
2024-01-09T01:55:16.044Z,50.30
2024-01-09T01:57:44.463Z,39.60
2024-01-09T02:00:13.210Z,47.00
2024-01-09T02:02:41.343Z,53.50
2024-01-09T02:05:12.297Z,48.50
2024-01-09T02:07:40.537Z,49.10
2024-01-09T02:10:08.852Z,56.40
2024-01-09T02:12:36.891Z,60.00
2024-01-09T02:15:05.974Z,46.30
2024-01-09T02:17:37.674Z,47.10
2024-01-09T02:20:12.127Z,54.90
2024-01-09T02:22:40.101Z,52.50
2024-01-09T02:25:08.309Z,56.00
2024-01-09T02:28:00.665Z,52.50
2024-01-09T02:30:28.797Z,45.00
2024-01-09T02:32:57.044Z,53.60
2024-01-09T02:35:25.022Z,46.60
2024-01-09T02:37:52.995Z,42.60
2024-01-09T02:40:20.949Z,54.10
2024-01-09T02:42:48.717Z,53.30
2024-01-09T02:45:16.820Z,55.70
2024-01-09T02:47:44.764Z,48.40
2024-01-09T02:50:13.073Z,49.10
2024-01-09T02:52:42.071Z,46.30
2024-01-09T02:55:09.767Z,52.20
2024-01-09T02:57:41.539Z,56.20
2024-01-09T03:00:10.247Z,55.20
2024-01-09T03:02:38.854Z,44.40
2024-01-09T03:05:08.478Z,50.70
2024-01-09T03:07:36.728Z,51.80
2024-01-09T03:10:05.203Z,53.40
2024-01-09T03:12:33.534Z,49.20
2024-01-09T03:15:02.161Z,54.10
2024-01-09T03:17:30.066Z,44.70
2024-01-09T03:19:57.942Z,50.90
2024-01-09T03:22:25.742Z,43.80
2024-01-09T03:24:53.570Z,55.90
2024-01-09T03:27:21.538Z,51.00
2024-01-09T03:29:49.433Z,45.70
2024-01-09T03:32:17.283Z,54.60
2024-01-09T03:34:45.065Z,54.70
2024-01-09T03:37:14.743Z,51.10
2024-01-09T03:39:46.259Z,46.30
2024-01-09T03:42:17.638Z,54.50
2024-01-09T03:44:46.306Z,82.70
2024-01-09T03:47:14.172Z,69.00
2024-01-09T03:49:42.094Z,63.20
2024-01-09T03:52:12.212Z,69.10
2024-01-09T03:54:39.958Z,62.90
2024-01-09T03:57:08.033Z,61.80
2024-01-09T03:59:35.794Z,53.00
2024-01-09T04:02:03.904Z,76.80
2024-01-09T04:04:31.871Z,62.90
2024-01-09T04:06:59.671Z,55.10
2024-01-09T04:09:28.240Z,74.00
2024-01-09T04:11:58.827Z,74.90
2024-01-09T04:14:27.731Z,76.50
2024-01-09T04:16:55.558Z,87.80
2024-01-09T04:19:23.574Z,77.00
2024-01-09T04:21:51.428Z,95.00
2024-01-09T04:24:19.374Z,69.50
2024-01-09T04:26:47.299Z,73.90
2024-01-09T04:29:17.711Z,67.40
2024-01-09T04:31:45.631Z,49.40
2024-01-09T04:34:13.706Z,67.70
2024-01-09T04:36:41.613Z,52.10
2024-01-09T04:39:09.460Z,59.50
2024-01-09T04:41:37.640Z,53.60
2024-01-09T04:44:05.567Z,48.20
2024-01-09T04:46:33.384Z,47.10
2024-01-09T04:49:08.722Z,56.10
2024-01-09T04:51:37.744Z,53.40
2024-01-09T04:54:24.595Z,51.50
2024-01-09T04:56:52.868Z,45.20
2024-01-09T04:59:41.563Z,52.80
2024-01-09T05:02:22.429Z,39.40
2024-01-09T05:04:51.905Z,57.10
2024-01-09T05:07:26.700Z,56.80
2024-01-09T05:10:15.173Z,51.70
2024-01-09T05:13:05.683Z,51.60
2024-01-09T05:15:33.672Z,53.60
2024-01-09T05:18:02.726Z,56.50
2024-01-09T05:20:30.808Z,56.70
2024-01-09T05:22:58.705Z,54.10
2024-01-09T05:25:26.559Z,47.80
2024-01-09T05:30:22.405Z,55.20
2024-01-09T05:32:50.403Z,49.40
2024-01-09T05:35:18.334Z,41.40
2024-01-09T05:37:47.891Z,48.90
2024-01-09T05:40:18.114Z,49.90
2024-01-09T05:42:46.094Z,48.00
2024-01-09T05:45:15.103Z,50.60
2024-01-09T05:47:46.320Z,44.30
2024-01-09T05:50:16.136Z,47.00
2024-01-09T05:52:43.985Z,48.00
2024-01-09T05:55:12.376Z,51.60
2024-01-09T05:57:40.217Z,42.90
2024-01-09T06:00:09.117Z,44.30
2024-01-09T06:02:37.155Z,52.70
2024-01-09T06:05:05.596Z,39.50
2024-01-09T06:07:33.902Z,49.20
2024-01-09T06:10:01.717Z,44.50
2024-01-09T06:12:30.095Z,53.20
2024-01-09T06:14:58.474Z,67.60
2024-01-09T06:17:26.374Z,73.90
2024-01-09T06:19:54.700Z,55.30
2024-01-09T06:22:22.633Z,72.10
2024-01-09T06:24:50.464Z,54.10
2024-01-09T06:27:18.534Z,52.80
2024-01-09T06:29:46.324Z,59.80
2024-01-09T06:32:14.330Z,69.90
2024-01-09T06:34:43.654Z,61.80
2024-01-09T06:37:11.562Z,65.90
2024-01-09T06:39:39.715Z,65.40
2024-01-09T06:42:08.067Z,60.10
2024-01-09T06:44:35.873Z,59.00
2024-01-09T06:47:03.761Z,50.80
2024-01-09T06:49:32.251Z,57.50
2024-01-09T06:52:00.013Z,60.50
2024-01-09T06:54:27.941Z,55.10
2024-01-09T06:57:00.982Z,53.10
2024-01-09T07:44:37.743Z,42.80
2024-01-09T07:47:08.956Z,43.10
2024-01-09T07:49:37.135Z,42.20
2024-01-09T07:52:05.669Z,37.10
2024-01-09T07:54:33.642Z,42.00
2024-01-09T07:57:01.897Z,50.20
2024-01-09T07:59:30.284Z,35.40
2024-01-09T08:01:58.553Z,41.00
2024-01-09T08:04:26.408Z,43.60
2024-01-09T08:06:55.331Z,42.50
2024-01-09T08:09:23.398Z,40.00
2024-01-09T08:11:51.217Z,40.70
2024-01-09T08:14:19.518Z,44.60
2024-01-09T08:16:47.772Z,57.20
